Terminal Aerodrome Forecast
Issued by NWS Brownsville, TX

Home | Current Version | Previous Version | Text Only | Print | Product List | Glossary On
Versions: 1 2 3 4 5 6 7 8 9 10 11 12 13 14 15
000
FTUS44 KBRO 100500
TAFBRO
TAF
KBRO 100520Z 1006/1106 11003KT P6SM -RA FEW110
     FM101200 14012G18KT P6SM VCSH SCT030 BKN050
     FM101500 15011KT P6SM OVC250 PROB30 1015/1018 P6SM TS BKN050CB
     FM101800 14012KT P6SM OVC050 PROB30 1018/1021 P6SM TS BKN050CB
     FM102100 13012KT P6SM OVC025 PROB30 1021/1024 P6SM TS BKN025CB
     FM110000 13011KT P6SM OVC050
     FM110300 12006KT P6SM OVC250=

USA.gov is the U.S. government's official web portal to all federal, state and local government web resources and services.